Time;durP1;ratioP1;P1;durP2;ratioP2;P2;SDS_P1;SDS_P2;PMS_P1;PMS_P2;Temp;Humidity;BMP_temperature;BMP_pressure;BME280_temperature;BME280_humidity;BME280_pressure;Samples;Min_cycle;Max_cycle;Signal;HPM_P1;HPM_P2
2024/01/26 00:01:32;;;;;;;59.58;28.17;;;;;;;;;;5016983;28;20193;-76
2024/01/26 00:03:58;;;;;;;62.60;29.58;;;;;;;;;;5033901;28;20189;-76
2024/01/26 00:06:24;;;;;;;59.30;30.02;;;;;;;;;;5041041;28;20193;-76
2024/01/26 00:08:50;;;;;;;64.05;31.40;;;;;;;;;;5040382;28;20267;-76
2024/01/26 00:11:16;;;;;;;58.40;27.70;;;;;;;;;;5039723;28;20672;-76
2024/01/26 00:13:42;;;;;;;69.60;32.33;;;;;;;;;;5032625;28;20204;-76
2024/01/26 00:16:07;;;;;;;64.80;30.88;;;;;;;;;;5047565;28;20228;-75
2024/01/26 00:18:33;;;;;;;72.65;33.17;;;;;;;;;;5013224;28;20206;-76
2024/01/26 00:20:59;;;;;;;71.07;33.33;;;;;;;;;;5030029;28;20647;-76
2024/01/26 00:23:24;;;;;;;75.05;35.10;;;;;;;;;;5035688;28;20227;-76
2024/01/26 00:25:50;;;;;;;67.90;31.15;;;;;;;;;;5046662;28;20194;-76
2024/01/26 00:28:15;;;;;;;68.07;32.47;;;;;;;;;;5038588;28;20241;-76
2024/01/26 00:30:41;;;;;;;68.70;32.38;;;;;;;;;;5041207;28;20244;-76
2024/01/26 00:33:06;;;;;;;73.97;35.50;;;;;;;;;;5037884;28;20200;-76
2024/01/26 00:35:32;;;;;;;74.07;33.35;;;;;;;;;;5033116;28;20228;-76
2024/01/26 00:37:58;;;;;;;74.18;34.35;;;;;;;;;;5050606;28;20201;-76
2024/01/26 00:40:23;;;;;;;72.85;33.58;;;;;;;;;;5038048;28;20634;-76
2024/01/26 00:42:49;;;;;;;75.15;33.72;;;;;;;;;;5039917;28;20648;-76
2024/01/26 00:45:14;;;;;;;76.50;34.67;;;;;;;;;;5044104;28;20684;-76
2024/01/26 00:47:40;;;;;;;74.63;34.90;;;;;;;;;;5051769;28;20193;-76
2024/01/26 00:50:05;;;;;;;76.85;36.42;;;;;;;;;;5041458;28;20587;-76
2024/01/26 00:52:31;;;;;;;73.72;34.65;;;;;;;;;;5046273;28;20209;-76
2024/01/26 00:54:56;;;;;;;82.43;35.72;;;;;;;;;;5036145;28;20186;-76
2024/01/26 00:57:22;;;;;;;80.70;34.88;;;;;;;;;;5036914;28;20189;-76
2024/01/26 00:59:48;;;;;;;75.68;35.70;;;;;;;;;;5036208;28;20186;-76
2024/01/26 01:02:14;;;;;;;77.45;34.42;;;;;;;;;;5037220;28;20205;-76
2024/01/26 01:04:39;;;;;;;77.40;37.47;;;;;;;;;;5030992;28;20202;-76
2024/01/26 01:07:05;;;;;;;83.80;37.20;;;;;;;;;;5042674;28;20220;-76
2024/01/26 01:09:31;;;;;;;76.40;35.60;;;;;;;;;;5041323;28;20201;-76
2024/01/26 01:11:57;;;;;;;77.55;37.05;;;;;;;;;;5039837;28;20212;-76
2024/01/26 01:14:24;;;;;;;76.00;35.33;;;;;;;;;;5036405;28;20209;-76
2024/01/26 01:16:50;;;;;;;75.38;37.08;;;;;;;;;;5047087;28;20589;-77
2024/01/26 01:19:16;;;;;;;79.43;37.80;;;;;;;;;;5029495;28;20251;-76
2024/01/26 01:21:41;;;;;;;82.88;38.70;;;;;;;;;;5020533;28;20197;-77
2024/01/26 01:24:07;;;;;;;81.95;37.92;;;;;;;;;;5019901;28;20194;-76
2024/01/26 01:26:33;;;;;;;82.50;38.47;;;;;;;;;;5040431;28;20706;-76
2024/01/26 01:28:58;;;;;;;81.43;38.65;;;;;;;;;;5027762;28;20242;-76
2024/01/26 01:31:24;;;;;;;74.15;36.25;;;;;;;;;;5035566;28;20193;-76
2024/01/26 01:33:50;;;;;;;82.63;36.75;;;;;;;;;;5027043;28;20194;-76
2024/01/26 01:36:15;;;;;;;73.97;35.08;;;;;;;;;;5016075;28;20324;-76
2024/01/26 01:38:41;;;;;;;72.93;36.92;;;;;;;;;;5026196;28;20189;-76
2024/01/26 01:41:06;;;;;;;76.93;37.17;;;;;;;;;;5041543;28;20182;-76
2024/01/26 01:43:31;;;;;;;75.78;36.97;;;;;;;;;;5020189;28;20221;-76
2024/01/26 01:45:57;;;;;;;79.88;38.10;;;;;;;;;;5031308;28;20216;-76
2024/01/26 01:48:23;;;;;;;72.28;35.47;;;;;;;;;;5047377;28;20649;-76
2024/01/26 01:50:49;;;;;;;70.22;34.78;;;;;;;;;;5025700;28;20346;-76
2024/01/26 01:53:14;;;;;;;70.22;34.80;;;;;;;;;;5028128;28;20488;-77
2024/01/26 01:55:42;;;;;;;62.60;33.92;;;;;;;;;;5011449;28;20241;-76
2024/01/26 01:58:08;;;;;;;66.00;33.88;;;;;;;;;;5027059;28;20268;-76
2024/01/26 02:00:34;;;;;;;62.90;33.15;;;;;;;;;;5039452;28;20224;-76
2024/01/26 02:03:00;;;;;;;61.53;31.65;;;;;;;;;;5040503;28;20186;-76
2024/01/26 02:05:25;;;;;;;62.15;32.65;;;;;;;;;;5045909;28;20319;-76
2024/01/26 02:07:51;;;;;;;62.63;33.33;;;;;;;;;;5034028;28;20638;-76
2024/01/26 02:10:17;;;;;;;62.20;31.67;;;;;;;;;;5035908;28;20680;-76
2024/01/26 02:12:43;;;;;;;59.28;32.45;;;;;;;;;;5058462;28;20193;-76
2024/01/26 02:15:09;;;;;;;57.63;31.63;;;;;;;;;;5042854;28;20680;-76
2024/01/26 02:17:36;;;;;;;56.75;31.83;;;;;;;;;;5018562;28;20240;-76
2024/01/26 02:20:04;;;;;;;59.33;32.05;;;;;;;;;;5044378;28;20217;-76
2024/01/26 02:22:29;;;;;;;55.70;31.42;;;;;;;;;;5031715;28;20675;-76
2024/01/26 02:24:55;;;;;;;55.88;29.73;;;;;;;;;;5039825;28;20212;-76
2024/01/26 02:27:21;;;;;;;58.38;32.67;;;;;;;;;;5029606;28;20192;-76
2024/01/26 02:29:47;;;;;;;58.17;31.73;;;;;;;;;;5041275;28;20252;-77
2024/01/26 02:32:13;;;;;;;57.95;30.73;;;;;;;;;;5036655;28;20241;-76
2024/01/26 02:34:38;;;;;;;51.40;29.85;;;;;;;;;;5035392;28;20754;-76
2024/01/26 02:37:04;;;;;;;55.92;30.58;;;;;;;;;;5035619;28;20611;-77
2024/01/26 02:39:29;;;;;;;54.05;30.83;;;;;;;;;;5044594;28;20603;-76
2024/01/26 02:41:57;;;;;;;52.50;30.33;;;;;;;;;;5032024;28;20221;-76
2024/01/26 02:44:23;;;;;;;52.42;29.83;;;;;;;;;;5033617;28;20595;-76
2024/01/26 02:46:48;;;;;;;50.05;29.52;;;;;;;;;;5049440;28;20185;-76
2024/01/26 02:49:14;;;;;;;50.08;29.42;;;;;;;;;;5033800;28;20238;-76
2024/01/26 02:51:39;;;;;;;43.13;26.85;;;;;;;;;;5048002;28;20228;-76
2024/01/26 02:54:05;;;;;;;49.53;29.35;;;;;;;;;;5036732;28;20335;-76
2024/01/26 02:56:30;;;;;;;48.63;27.38;;;;;;;;;;5019159;28;20612;-76
2024/01/26 02:58:56;;;;;;;45.00;27.02;;;;;;;;;;5050028;28;20200;-77
2024/01/26 03:01:21;;;;;;;44.78;26.90;;;;;;;;;;5045295;28;20680;-76
2024/01/26 03:03:47;;;;;;;42.65;25.95;;;;;;;;;;5037017;28;20189;-76
2024/01/26 03:06:12;;;;;;;42.38;26.60;;;;;;;;;;5049925;28;20243;-76
2024/01/26 03:08:38;;;;;;;40.38;26.13;;;;;;;;;;5036451;28;20247;-76
2024/01/26 03:11:05;;;;;;;40.92;26.10;;;;;;;;;;5020838;28;20194;-76
2024/01/26 03:13:30;;;;;;;39.17;25.98;;;;;;;;;;5038505;28;20272;-76
2024/01/26 03:15:55;;;;;;;44.00;27.60;;;;;;;;;;5028679;28;20765;-76
2024/01/26 03:18:21;;;;;;;43.72;26.85;;;;;;;;;;5042420;28;20715;-76
2024/01/26 03:20:48;;;;;;;43.75;27.35;;;;;;;;;;5040905;28;20569;-76
2024/01/26 03:23:14;;;;;;;49.53;27.33;;;;;;;;;;5047553;28;20190;-76
2024/01/26 03:25:40;;;;;;;43.63;28.25;;;;;;;;;;5043986;28;20231;-77
2024/01/26 03:28:06;;;;;;;46.67;27.85;;;;;;;;;;5021809;28;20209;-76
2024/01/26 03:30:32;;;;;;;42.83;26.38;;;;;;;;;;5046462;28;20185;-76
2024/01/26 03:32:58;;;;;;;44.05;27.15;;;;;;;;;;5043246;28;20196;-76
2024/01/26 03:35:24;;;;;;;43.60;26.35;;;;;;;;;;5036195;28;20653;-76
2024/01/26 03:37:49;;;;;;;42.25;26.02;;;;;;;;;;5029261;28;20182;-77
2024/01/26 03:40:14;;;;;;;41.35;25.23;;;;;;;;;;5033540;28;20185;-76
2024/01/26 03:42:40;;;;;;;40.35;25.95;;;;;;;;;;5036120;28;20498;-76
2024/01/26 03:45:07;;;;;;;40.78;25.75;;;;;;;;;;5035474;28;20502;-76
2024/01/26 03:47:32;;;;;;;38.03;25.17;;;;;;;;;;5033866;28;20194;-76
2024/01/26 03:49:57;;;;;;;39.25;25.48;;;;;;;;;;5028433;28;20202;-76
2024/01/26 03:52:23;;;;;;;36.35;24.75;;;;;;;;;;5045503;28;20200;-76
2024/01/26 03:54:48;;;;;;;35.25;22.92;;;;;;;;;;5040076;28;20305;-76
2024/01/26 03:57:14;;;;;;;38.95;25.48;;;;;;;;;;5028920;28;20190;-76
2024/01/26 03:59:39;;;;;;;37.75;23.83;;;;;;;;;;5029564;28;20575;-76
2024/01/26 04:02:05;;;;;;;34.88;23.42;;;;;;;;;;5041899;28;20744;-76
2024/01/26 04:04:31;;;;;;;37.50;25.10;;;;;;;;;;5050672;28;20663;-76
2024/01/26 04:06:56;;;;;;;37.33;23.35;;;;;;;;;;5026251;28;20240;-76
2024/01/26 04:09:22;;;;;;;37.03;23.95;;;;;;;;;;5032433;28;20237;-76
2024/01/26 04:11:47;;;;;;;32.83;21.73;;;;;;;;;;5036359;28;20253;-76
2024/01/26 04:14:13;;;;;;;34.65;23.30;;;;;;;;;;5016250;28;20214;-76
2024/01/26 04:16:39;;;;;;;30.98;21.80;;;;;;;;;;5044289;28;20229;-76
2024/01/26 04:19:05;;;;;;;35.67;23.25;;;;;;;;;;5034925;28;20305;-76
2024/01/26 04:21:31;;;;;;;36.13;21.60;;;;;;;;;;5042270;28;20320;-76
2024/01/26 04:23:57;;;;;;;34.85;22.27;;;;;;;;;;5047134;28;20606;-76
2024/01/26 04:26:22;;;;;;;35.70;20.75;;;;;;;;;;5034821;28;20280;-76
2024/01/26 04:28:48;;;;;;;31.73;20.10;;;;;;;;;;5033658;28;20488;-76
2024/01/26 04:31:14;;;;;;;28.20;19.85;;;;;;;;;;5040111;28;20218;-76
2024/01/26 04:33:39;;;;;;;28.48;19.27;;;;;;;;;;5041902;28;20189;-76
2024/01/26 04:36:08;;;;;;;26.00;18.45;;;;;;;;;;5043001;28;20190;-76
2024/01/26 04:38:37;;;;;;;30.77;18.35;;;;;;;;;;5038147;28;20659;-76
2024/01/26 04:41:03;;;;;;;26.80;17.83;;;;;;;;;;5056049;28;20292;-76
2024/01/26 04:43:29;;;;;;;24.52;16.50;;;;;;;;;;5036451;28;20836;-76
2024/01/26 04:45:55;;;;;;;22.83;15.85;;;;;;;;;;5046511;28;20178;-76
2024/01/26 04:48:22;;;;;;;25.75;16.13;;;;;;;;;;5017015;28;20677;-76
2024/01/26 04:50:47;;;;;;;26.55;16.83;;;;;;;;;;5018100;28;20211;-76
2024/01/26 04:53:13;;;;;;;24.08;15.85;;;;;;;;;;5039604;28;20186;-76
2024/01/26 04:55:38;;;;;;;21.70;15.88;;;;;;;;;;5034194;28;20235;-76
2024/01/26 04:58:04;;;;;;;22.90;16.23;;;;;;;;;;5031794;28;20342;-76
2024/01/26 05:00:30;;;;;;;23.20;14.85;;;;;;;;;;5029760;28;20790;-76
2024/01/26 05:02:55;;;;;;;25.25;15.65;;;;;;;;;;5035523;28;20185;-76
2024/01/26 05:05:21;;;;;;;25.10;15.40;;;;;;;;;;5044594;28;20197;-76
2024/01/26 05:07:46;;;;;;;23.98;14.65;;;;;;;;;;5039583;28;20551;-76
2024/01/26 05:10:12;;;;;;;19.42;14.15;;;;;;;;;;5034307;28;20213;-76
2024/01/26 05:12:38;;;;;;;20.08;13.43;;;;;;;;;;5038038;28;20189;-76
2024/01/26 05:15:05;;;;;;;20.58;13.90;;;;;;;;;;5029146;28;20186;-76
2024/01/26 05:17:31;;;;;;;21.00;12.98;;;;;;;;;;5051130;28;20283;-76
2024/01/26 05:19:56;;;;;;;20.35;13.27;;;;;;;;;;5032846;28;20221;-76
2024/01/26 05:22:22;;;;;;;18.45;12.57;;;;;;;;;;5027920;28;20196;-76
2024/01/26 05:24:47;;;;;;;21.63;12.85;;;;;;;;;;5028591;28;20364;-77
2024/01/26 05:27:13;;;;;;;19.83;13.27;;;;;;;;;;5034518;28;20181;-77
2024/01/26 05:29:38;;;;;;;18.98;13.15;;;;;;;;;;5041049;28;20213;-77
2024/01/26 05:32:05;;;;;;;19.30;12.32;;;;;;;;;;5039699;28;20207;-76
2024/01/26 05:34:30;;;;;;;17.35;11.80;;;;;;;;;;5029967;28;20261;-76
2024/01/26 05:36:55;;;;;;;19.30;11.63;;;;;;;;;;5045654;28;20279;-76
2024/01/26 05:39:21;;;;;;;17.15;11.75;;;;;;;;;;5039647;28;20626;-77
2024/01/26 05:41:46;;;;;;;15.43;11.48;;;;;;;;;;5033329;28;20182;-76
2024/01/26 05:44:12;;;;;;;14.70;11.40;;;;;;;;;;5043945;28;20338;-76
2024/01/26 05:46:37;;;;;;;16.60;11.18;;;;;;;;;;5041485;28;20685;-76
2024/01/26 05:49:03;;;;;;;18.80;11.27;;;;;;;;;;5048506;28;20220;-76
2024/01/26 05:51:28;;;;;;;13.90;11.02;;;;;;;;;;5022009;28;20197;-76
2024/01/26 05:53:54;;;;;;;13.20;10.82;;;;;;;;;;5040955;28;20182;-76
2024/01/26 05:56:20;;;;;;;17.23;11.90;;;;;;;;;;5041166;28;20201;-76
2024/01/26 05:58:45;;;;;;;12.68;9.98;;;;;;;;;;5032675;28;20178;-76
2024/01/26 06:01:11;;;;;;;15.43;10.95;;;;;;;;;;5033051;28;20229;-76
2024/01/26 06:03:37;;;;;;;15.80;10.77;;;;;;;;;;5033172;28;20193;-76
2024/01/26 06:06:03;;;;;;;15.07;11.18;;;;;;;;;;5030726;28;20632;-77
2024/01/26 06:08:29;;;;;;;16.95;10.60;;;;;;;;;;5034750;28;20217;-76
2024/01/26 06:10:56;;;;;;;14.43;10.27;;;;;;;;;;5036761;28;20205;-76
2024/01/26 06:13:22;;;;;;;15.52;10.18;;;;;;;;;;5036979;28;20645;-77
2024/01/26 06:15:48;;;;;;;16.58;10.93;;;;;;;;;;5042614;28;20284;-76
2024/01/26 06:18:13;;;;;;;12.45;10.93;;;;;;;;;;5035221;28;20257;-77
2024/01/26 06:20:39;;;;;;;15.00;10.38;;;;;;;;;;5027952;28;20193;-76
2024/01/26 06:23:05;;;;;;;16.02;11.40;;;;;;;;;;5038732;28;20243;-76
2024/01/26 06:25:31;;;;;;;15.75;10.73;;;;;;;;;;5037638;28;20192;-76
2024/01/26 06:27:57;;;;;;;16.35;11.27;;;;;;;;;;5042209;28;20623;-76
2024/01/26 06:30:23;;;;;;;15.35;11.27;;;;;;;;;;5042028;28;20590;-76
2024/01/26 06:32:48;;;;;;;15.13;11.32;;;;;;;;;;5030936;28;20177;-76
2024/01/26 06:35:14;;;;;;;14.68;11.18;;;;;;;;;;5031672;28;20186;-76
2024/01/26 06:37:40;;;;;;;14.00;11.38;;;;;;;;;;5038408;28;20190;-75
2024/01/26 06:40:10;;;;;;;14.13;10.80;;;;;;;;;;5027517;28;20193;-75
2024/01/26 06:42:40;;;;;;;16.38;11.40;;;;;;;;;;5017890;28;20674;-75
2024/01/26 06:45:12;;;;;;;14.48;11.10;;;;;;;;;;5037565;28;20654;-76
2024/01/26 06:47:38;;;;;;;14.20;11.52;;;;;;;;;;5045497;28;20186;-74
2024/01/26 06:50:04;;;;;;;18.30;11.90;;;;;;;;;;5044921;28;20357;-77
2024/01/26 06:52:31;;;;;;;14.90;11.75;;;;;;;;;;5037474;28;20267;-77
2024/01/26 06:54:56;;;;;;;18.98;12.70;;;;;;;;;;5039847;28;20189;-78
2024/01/26 06:57:22;;;;;;;20.02;12.60;;;;;;;;;;5047948;28;20549;-77
2024/01/26 06:59:47;;;;;;;16.10;12.07;;;;;;;;;;5051489;28;20178;-76
2024/01/26 07:02:13;;;;;;;23.85;12.77;;;;;;;;;;5042467;28;20181;-77
2024/01/26 07:04:38;;;;;;;17.70;12.35;;;;;;;;;;5045434;28;20275;-77
2024/01/26 07:07:03;;;;;;;20.88;12.70;;;;;;;;;;5037372;28;20606;-76
2024/01/26 07:09:29;;;;;;;17.58;12.23;;;;;;;;;;5031542;28;20684;-77
2024/01/26 07:11:54;;;;;;;17.83;11.80;;;;;;;;;;5048660;28;20185;-77
2024/01/26 07:14:20;;;;;;;16.33;11.38;;;;;;;;;;5040770;28;20239;-77
2024/01/26 07:16:49;;;;;;;17.30;11.63;;;;;;;;;;5044909;28;20706;-77
2024/01/26 07:19:14;;;;;;;16.10;11.02;;;;;;;;;;5040710;28;20312;-77
2024/01/26 07:21:40;;;;;;;20.17;11.88;;;;;;;;;;5042980;28;20609;-77
2024/01/26 07:24:06;;;;;;;15.35;11.73;;;;;;;;;;5042541;28;20194;-77
2024/01/26 07:26:31;;;;;;;15.07;11.77;;;;;;;;;;5045995;28;20625;-78
2024/01/26 07:28:57;;;;;;;18.83;12.27;;;;;;;;;;5039080;28;20264;-76
2024/01/26 07:31:23;;;;;;;15.45;11.10;;;;;;;;;;5044079;28;20326;-77
2024/01/26 07:33:48;;;;;;;17.55;11.77;;;;;;;;;;5031308;28;20214;-77
2024/01/26 07:36:14;;;;;;;17.58;11.75;;;;;;;;;;5041354;28;20201;-77
2024/01/26 07:38:39;;;;;;;15.10;11.10;;;;;;;;;;5039593;28;20182;-78
2024/01/26 07:41:06;;;;;;;16.08;12.02;;;;;;;;;;5029820;28;20194;-77
2024/01/26 07:43:31;;;;;;;15.80;11.27;;;;;;;;;;5040476;28;20221;-78
2024/01/26 07:45:57;;;;;;;16.92;11.48;;;;;;;;;;5048864;28;20213;-78
2024/01/26 07:48:22;;;;;;;17.02;11.68;;;;;;;;;;5043544;28;20224;-78
2024/01/26 07:50:48;;;;;;;15.52;10.85;;;;;;;;;;5046115;28;20512;-78
2024/01/26 07:53:13;;;;;;;13.82;11.05;;;;;;;;;;5046387;28;20197;-77
2024/01/26 07:55:40;;;;;;;14.05;9.65;;;;;;;;;;5035461;28;20727;-77
2024/01/26 07:58:06;;;;;;;13.18;10.93;;;;;;;;;;5032843;28;20194;-77
2024/01/26 08:00:32;;;;;;;14.65;10.93;;;;;;;;;;5036335;28;20638;-78
2024/01/26 08:02:58;;;;;;;13.60;8.80;;;;;;;;;;5050039;28;20189;-79
2024/01/26 08:05:23;;;;;;;11.68;9.68;;;;;;;;;;5038338;28;20185;-78
2024/01/26 08:07:49;;;;;;;12.40;8.90;;;;;;;;;;5039266;28;20248;-77
2024/01/26 08:10:14;;;;;;;12.38;9.52;;;;;;;;;;5038659;28;20237;-76
2024/01/26 08:12:40;;;;;;;12.63;10.00;;;;;;;;;;5039220;28;20192;-77
2024/01/26 08:15:06;;;;;;;13.23;9.93;;;;;;;;;;5040925;28;20719;-77
2024/01/26 08:17:33;;;;;;;14.43;9.80;;;;;;;;;;5023512;28;20236;-77
2024/01/26 08:19:58;;;;;;;13.00;10.27;;;;;;;;;;5030622;28;20841;-78
2024/01/26 08:22:25;;;;;;;13.13;9.65;;;;;;;;;;5037057;28;20190;-77
2024/01/26 08:24:51;;;;;;;12.73;10.00;;;;;;;;;;5051528;28;20192;-77
2024/01/26 08:27:17;;;;;;;11.80;9.50;;;;;;;;;;5043196;28;20672;-77
2024/01/26 08:29:42;;;;;;;13.35;9.70;;;;;;;;;;5029296;28;20319;-77
2024/01/26 08:32:08;;;;;;;12.55;9.88;;;;;;;;;;5038111;28;20185;-77
2024/01/26 08:34:34;;;;;;;12.57;9.30;;;;;;;;;;5028397;28;20189;-76
2024/01/26 08:37:00;;;;;;;12.77;9.55;;;;;;;;;;5018281;28;20289;-77
2024/01/26 08:39:25;;;;;;;13.15;9.77;;;;;;;;;;5039871;28;20429;-77
2024/01/26 08:41:51;;;;;;;12.95;9.73;;;;;;;;;;5038596;28;20336;-77
2024/01/26 08:44:16;;;;;;;12.15;9.75;;;;;;;;;;5042339;28;20185;-78
2024/01/26 08:46:42;;;;;;;14.00;10.25;;;;;;;;;;5038886;28;20320;-78
2024/01/26 08:49:07;;;;;;;14.98;10.35;;;;;;;;;;5049092;28;20718;-78
2024/01/26 08:51:33;;;;;;;13.93;9.88;;;;;;;;;;5046140;28;20189;-77
2024/01/26 08:53:58;;;;;;;12.43;9.63;;;;;;;;;;5030562;28;20182;-78
2024/01/26 08:56:24;;;;;;;14.15;9.48;;;;;;;;;;5025269;28;20489;-78
2024/01/26 08:58:53;;;;;;;10.30;8.27;;;;;;;;;;5031373;28;20272;-78
2024/01/26 09:01:19;;;;;;;10.85;8.50;;;;;;;;;;5023447;28;20186;-78
2024/01/26 09:03:45;;;;;;;11.88;9.13;;;;;;;;;;5044926;28;20185;-78
2024/01/26 09:06:10;;;;;;;11.20;9.38;;;;;;;;;;5035614;28;20661;-77
2024/01/26 09:08:36;;;;;;;11.38;8.50;;;;;;;;;;5035170;28;20202;-78
2024/01/26 09:11:01;;;;;;;10.70;8.40;;;;;;;;;;5040159;28;20201;-77
2024/01/26 09:13:27;;;;;;;11.20;8.10;;;;;;;;;;5044569;28;20189;-78
2024/01/26 09:15:52;;;;;;;12.27;8.20;;;;;;;;;;5031984;28;20196;-78
2024/01/26 09:18:18;;;;;;;12.23;8.73;;;;;;;;;;5036151;28;20689;-78
2024/01/26 09:20:48;;;;;;;10.43;7.50;;;;;;;;;;5046176;28;20696;-77
2024/01/26 09:23:13;;;;;;;12.50;8.57;;;;;;;;;;5019740;28;20221;-78
2024/01/26 09:25:39;;;;;;;10.23;8.10;;;;;;;;;;5031649;28;20585;-78
2024/01/26 09:28:04;;;;;;;9.57;7.78;;;;;;;;;;5018282;28;20190;-79
2024/01/26 09:30:30;;;;;;;11.23;7.80;;;;;;;;;;5038155;28;20630;-78
2024/01/26 09:32:56;;;;;;;10.65;8.30;;;;;;;;;;5032052;28;20533;-77
2024/01/26 09:35:23;;;;;;;10.68;7.85;;;;;;;;;;5041245;28;20257;-77
2024/01/26 09:37:49;;;;;;;9.38;7.63;;;;;;;;;;5032128;28;20190;-78
2024/01/26 09:40:15;;;;;;;8.13;6.68;;;;;;;;;;5034976;28;20206;-78
2024/01/26 09:42:40;;;;;;;10.07;7.45;;;;;;;;;;5034146;28;20197;-77
2024/01/26 09:45:11;;;;;;;11.50;7.30;;;;;;;;;;5043390;28;20190;-76
2024/01/26 09:47:39;;;;;;;8.63;6.38;;;;;;;;;;5022395;28;20262;-77
2024/01/26 09:50:05;;;;;;;10.55;6.50;;;;;;;;;;5041848;28;20286;-76
2024/01/26 09:52:33;;;;;;;12.95;6.00;;;;;;;;;;5042509;28;20309;-76
2024/01/26 09:55:01;;;;;;;6.70;4.88;;;;;;;;;;5028898;28;20182;-76
2024/01/26 09:57:27;;;;;;;7.43;4.95;;;;;;;;;;5039476;28;20186;-75
2024/01/26 09:59:53;;;;;;;7.90;4.38;;;;;;;;;;5029307;28;20177;-79
2024/01/26 10:02:21;;;;;;;3.08;1.25;;;;;;;;;;5041916;28;20270;-76
2024/01/26 10:04:47;;;;;;;5.53;0.82;;;;;;;;;;5019462;28;20174;-76
2024/01/26 10:07:14;;;;;;;4.15;0.82;;;;;;;;;;5037956;28;20196;-76
2024/01/26 10:09:39;;;;;;;2.80;0.70;;;;;;;;;;5037687;28;20213;-77
2024/01/26 10:12:10;;;;;;;2.03;0.80;;;;;;;;;;5030344;28;20655;-76
2024/01/26 10:14:37;;;;;;;4.50;0.63;;;;;;;;;;5021382;28;20536;-76
2024/01/26 10:17:03;;;;;;;1.63;0.57;;;;;;;;;;5022494;28;20276;-76
2024/01/26 10:19:29;;;;;;;1.20;0.30;;;;;;;;;;5027217;28;20193;-76
2024/01/26 10:21:56;;;;;;;1.80;0.40;;;;;;;;;;5040986;28;20213;-77
2024/01/26 10:24:23;;;;;;;1.15;0.30;;;;;;;;;;5036809;28;20284;-76
2024/01/26 10:26:50;;;;;;;6.65;0.55;;;;;;;;;;5036105;28;20201;-76
2024/01/26 10:29:15;;;;;;;1.42;0.40;;;;;;;;;;5037238;28;20697;-76
2024/01/26 10:31:41;;;;;;;3.65;0.55;;;;;;;;;;5037664;28;20217;-75
2024/01/26 10:34:13;;;;;;;2.15;0.35;;;;;;;;;;5042398;28;20669;-75
2024/01/26 10:36:44;;;;;;;3.63;0.63;;;;;;;;;;5049262;28;20307;-76
2024/01/26 10:39:28;;;;;;;3.50;0.65;;;;;;;;;;5049636;28;20288;-75
2024/01/26 10:42:00;;;;;;;5.68;0.63;;;;;;;;;;5046688;28;20232;-75
2024/01/26 10:44:26;;;;;;;9.60;1.10;;;;;;;;;;5038941;28;20182;-75
2024/01/26 10:46:53;;;;;;;3.92;1.10;;;;;;;;;;5049884;28;20262;-75
2024/01/26 10:49:21;;;;;;;5.32;0.90;;;;;;;;;;5030266;28;20233;-75
2024/01/26 10:51:48;;;;;;;8.05;1.30;;;;;;;;;;5043122;28;20201;-74
2024/01/26 10:54:13;;;;;;;9.73;1.35;;;;;;;;;;5031366;28;20193;-74
2024/01/26 10:56:39;;;;;;;8.48;1.33;;;;;;;;;;5042370;28;20189;-75
2024/01/26 10:59:10;;;;;;;10.95;1.63;;;;;;;;;;5038929;28;20659;-75
2024/01/26 11:01:37;;;;;;;11.02;1.52;;;;;;;;;;5044637;28;20195;-76
2024/01/26 11:04:03;;;;;;;12.85;2.03;;;;;;;;;;5040297;28;20186;-75
2024/01/26 11:06:31;;;;;;;8.40;1.30;;;;;;;;;;5041814;28;20255;-74
2024/01/26 11:09:01;;;;;;;12.18;1.80;;;;;;;;;;5045576;28;20346;-75
2024/01/26 11:11:31;;;;;;;12.30;1.75;;;;;;;;;;5044704;28;20189;-73
2024/01/26 11:14:00;;;;;;;10.82;1.35;;;;;;;;;;5038369;28;20193;-74
2024/01/26 11:16:30;;;;;;;15.07;1.63;;;;;;;;;;5034958;28;20325;-73
2024/01/26 11:18:59;;;;;;;11.10;2.00;;;;;;;;;;5035125;28;20221;-74
2024/01/26 11:21:35;;;;;;;11.55;2.15;;;;;;;;;;5032244;28;20190;-74
2024/01/26 11:24:13;;;;;;;11.93;2.05;;;;;;;;;;5039494;28;20186;-74
2024/01/26 11:26:38;;;;;;;12.98;1.77;;;;;;;;;;5044092;28;20190;-75
2024/01/26 11:29:14;;;;;;;12.70;2.13;;;;;;;;;;5035136;28;20213;-74
2024/01/26 11:31:42;;;;;;;16.40;2.13;;;;;;;;;;5031386;28;20193;-74
2024/01/26 11:34:23;;;;;;;11.95;2.03;;;;;;;;;;5030512;28;20191;-74
2024/01/26 11:37:14;;;;;;;18.17;2.10;;;;;;;;;;5038927;28;20419;-75
2024/01/26 11:39:40;;;;;;;11.35;1.77;;;;;;;;;;4338694;28;10000700;-75
2024/01/26 11:42:10;;;;;;;17.98;2.30;;;;;;;;;;5033506;28;20885;-74
2024/01/26 11:44:49;;;;;;;9.25;2.10;;;;;;;;;;5041384;28;20189;-75
2024/01/26 11:47:15;;;;;;;13.52;2.10;;;;;;;;;;5030805;28;20228;-74
2024/01/26 11:49:40;;;;;;;14.02;1.60;;;;;;;;;;5028051;28;20264;-74
2024/01/26 11:52:06;;;;;;;19.15;2.33;;;;;;;;;;5037952;28;20190;-75
2024/01/26 11:54:32;;;;;;;12.60;1.60;;;;;;;;;;5028961;28;20193;-75
2024/01/26 11:56:59;;;;;;;16.63;2.60;;;;;;;;;;5035510;28;20653;-73
2024/01/26 11:59:31;;;;;;;17.50;1.88;;;;;;;;;;5028021;28;20182;-75
2024/01/26 12:01:57;;;;;;;18.42;2.65;;;;;;;;;;5030302;28;20655;-75
2024/01/26 12:04:23;;;;;;;14.70;2.05;;;;;;;;;;5026592;28;20200;-75
2024/01/26 12:06:50;;;;;;;12.05;1.88;;;;;;;;;;5030365;28;20231;-75
2024/01/26 12:09:15;;;;;;;13.88;1.92;;;;;;;;;;5030986;28;20214;-75
2024/01/26 12:11:41;;;;;;;23.15;2.95;;;;;;;;;;5032623;28;20194;-75
2024/01/26 12:14:06;;;;;;;15.23;2.25;;;;;;;;;;5040431;28;20208;-75
2024/01/26 12:16:32;;;;;;;18.10;2.22;;;;;;;;;;5036209;28;20230;-75
2024/01/26 12:19:00;;;;;;;17.23;2.25;;;;;;;;;;5043198;28;20209;-74
2024/01/26 12:21:28;;;;;;;15.77;2.50;;;;;;;;;;5034275;28;20190;-73
2024/01/26 12:23:54;;;;;;;10.30;2.40;;;;;;;;;;5027324;28;20218;-74
2024/01/26 12:26:20;;;;;;;12.93;2.20;;;;;;;;;;5030097;28;20212;-75
2024/01/26 12:28:46;;;;;;;20.40;2.33;;;;;;;;;;5032629;28;20424;-73
2024/01/26 12:31:11;;;;;;;22.80;3.00;;;;;;;;;;5040147;28;20203;-74
2024/01/26 12:33:37;;;;;;;12.18;1.60;;;;;;;;;;5023981;28;20194;-74
2024/01/26 12:36:08;;;;;;;13.80;2.38;;;;;;;;;;5034537;28;20567;-74
2024/01/26 12:38:33;;;;;;;14.95;2.70;;;;;;;;;;5028295;28;20189;-74
2024/01/26 12:40:59;;;;;;;11.35;2.05;;;;;;;;;;5040162;28;20288;-73
2024/01/26 12:43:25;;;;;;;15.77;2.20;;;;;;;;;;5044994;28;20802;-73
2024/01/26 12:45:51;;;;;;;7.75;1.33;;;;;;;;;;5032394;28;20206;-74
2024/01/26 12:48:16;;;;;;;15.70;1.88;;;;;;;;;;5035423;28;20301;-75
2024/01/26 12:50:41;;;;;;;13.98;1.98;;;;;;;;;;5037671;28;20185;-74
2024/01/26 12:53:08;;;;;;;12.68;2.53;;;;;;;;;;5035919;28;20198;-74
2024/01/26 12:55:34;;;;;;;15.48;2.22;;;;;;;;;;5031962;28;20194;-74
2024/01/26 12:57:59;;;;;;;16.38;2.55;;;;;;;;;;5041612;28;22015;-73
2024/01/26 13:00:24;;;;;;;14.95;2.30;;;;;;;;;;5029010;28;20685;-73
2024/01/26 13:02:51;;;;;;;12.82;2.15;;;;;;;;;;5036293;28;20182;-73
2024/01/26 13:05:16;;;;;;;7.55;1.33;;;;;;;;;;5032012;28;20197;-74
2024/01/26 13:07:42;;;;;;;10.98;1.40;;;;;;;;;;5041418;28;20243;-74
2024/01/26 13:10:08;;;;;;;11.50;1.58;;;;;;;;;;5034859;28;20283;-74
2024/01/26 13:12:34;;;;;;;10.32;1.70;;;;;;;;;;5029583;28;20259;-73
2024/01/26 13:14:59;;;;;;;14.38;2.30;;;;;;;;;;5047712;28;20624;-73
2024/01/26 13:17:26;;;;;;;9.93;1.88;;;;;;;;;;5026863;28;20599;-73
2024/01/26 13:19:51;;;;;;;12.20;2.63;;;;;;;;;;5021258;28;20213;-74
2024/01/26 13:22:17;;;;;;;21.85;2.83;;;;;;;;;;5027129;28;20201;-73
2024/01/26 13:24:44;;;;;;;15.25;2.13;;;;;;;;;;5041686;28;20610;-73
2024/01/26 13:27:10;;;;;;;15.40;2.63;;;;;;;;;;5035255;28;20228;-73
2024/01/26 13:29:36;;;;;;;21.40;2.88;;;;;;;;;;5035695;28;20707;-73
2024/01/26 13:32:02;;;;;;;15.63;2.85;;;;;;;;;;5031708;28;20190;-75
2024/01/26 13:34:27;;;;;;;18.15;2.55;;;;;;;;;;5041551;28;20190;-74
2024/01/26 13:36:53;;;;;;;18.90;2.85;;;;;;;;;;5031806;28;20178;-75
2024/01/26 13:39:18;;;;;;;14.85;2.40;;;;;;;;;;5031145;28;20179;-74
2024/01/26 13:41:44;;;;;;;15.50;2.30;;;;;;;;;;5040899;28;20193;-73
2024/01/26 13:44:10;;;;;;;8.88;2.00;;;;;;;;;;5037197;28;20185;-74
2024/01/26 13:46:35;;;;;;;21.55;2.40;;;;;;;;;;5038205;28;20763;-74
2024/01/26 13:49:01;;;;;;;13.98;1.80;;;;;;;;;;5039884;28;20305;-74
2024/01/26 13:51:26;;;;;;;11.85;1.83;;;;;;;;;;5036080;28;20190;-74
2024/01/26 13:53:51;;;;;;;13.45;1.85;;;;;;;;;;5043327;28;20643;-74
2024/01/26 13:56:18;;;;;;;15.43;2.10;;;;;;;;;;5040780;28;20652;-74
2024/01/26 13:58:44;;;;;;;15.85;1.77;;;;;;;;;;5035990;28;20186;-74
2024/01/26 14:01:09;;;;;;;14.60;2.30;;;;;;;;;;5035680;28;20198;-74
2024/01/26 14:03:35;;;;;;;12.75;3.03;;;;;;;;;;5040319;28;20189;-72
2024/01/26 14:06:00;;;;;;;13.82;2.03;;;;;;;;;;5039132;28;20189;-73
2024/01/26 14:08:26;;;;;;;10.77;1.80;;;;;;;;;;5037558;28;20193;-73
2024/01/26 14:10:51;;;;;;;14.30;2.03;;;;;;;;;;5033491;28;20315;-74
2024/01/26 14:13:16;;;;;;;14.48;2.47;;;;;;;;;;5037474;28;20189;-73
2024/01/26 14:15:42;;;;;;;15.32;2.25;;;;;;;;;;5034172;28;20286;-74
2024/01/26 14:18:07;;;;;;;15.32;2.03;;;;;;;;;;5044465;28;20213;-73